Time;durP1;ratioP1;P1;durP2;ratioP2;P2;SDS_P1;SDS_P2;PMS_P1;PMS_P2;Temp;Humidity;BMP_temperature;BMP_pressure;BME280_temperature;BME280_humidity;BME280_pressure;Samples;Min_cycle;Max_cycle;Signal;HPM_P1;HPM_P2
2021/12/14 00:00:19;;;;;;;7.13;3.83;;;;;;;8.28;92.62;102501.38;5014662;28;20101;-72
2021/12/14 00:02:48;;;;;;;6.32;3.88;;;;;;;8.29;93.02;102486.53;5034289;28;20052;-73
2021/12/14 00:05:16;;;;;;;10.43;3.45;;;;;;;8.30;92.28;102490.81;5033345;28;20037;-71
2021/12/14 00:07:43;;;;;;;8.80;4.78;;;;;;;8.25;93.15;102485.78;5032604;28;20124;-72
2021/12/14 00:10:28;;;;;;;5.38;3.63;;;;;;;8.26;92.75;102481.41;5034622;28;20068;-72
2021/12/14 00:13:00;;;;;;;7.45;3.88;;;;;;;8.27;92.86;102485.72;5018421;28;20071;-72
2021/12/14 00:15:27;;;;;;;6.15;3.40;;;;;;;8.32;92.72;102487.25;5023318;28;20054;-74
2021/12/14 00:17:58;;;;;;;5.53;3.72;;;;;;;8.28;92.70;102480.41;5034153;28;20116;-72
2021/12/14 00:20:28;;;;;;;6.32;3.65;;;;;;;8.21;93.21;102472.88;5019144;28;20036;-73
2021/12/14 00:25:44;;;;;;;7.13;3.80;;;;;;;8.27;93.01;102483.94;5026978;28;20050;-74
2021/12/14 00:28:16;;;;;;;5.25;3.50;;;;;;;8.34;92.20;102479.31;5032694;28;20128;-73
2021/12/14 00:30:45;;;;;;;7.57;3.55;;;;;;;8.32;93.33;102474.16;5017061;28;20055;-73
2021/12/14 00:33:17;;;;;;;6.80;3.58;;;;;;;8.28;93.26;102475.19;5035424;28;20053;-73
2021/12/14 00:35:44;;;;;;;4.82;3.22;;;;;;;8.24;92.68;102475.38;5039419;28;20041;-73
2021/12/14 00:38:12;;;;;;;5.03;3.10;;;;;;;8.24;92.96;102483.22;5055424;28;20045;-73
2021/12/14 00:40:41;;;;;;;5.88;3.92;;;;;;;8.25;93.52;102479.69;5041419;28;20033;-71
2021/12/14 00:43:08;;;;;;;7.25;3.65;;;;;;;8.27;93.31;102462.16;5056625;28;20809;-74
2021/12/14 00:45:38;;;;;;;4.60;3.15;;;;;;;8.25;93.37;102471.84;5036310;28;20077;-72
2021/12/14 00:48:06;;;;;;;4.22;2.67;;;;;;;8.19;92.81;102475.56;5034355;28;20102;-72
2021/12/14 00:50:35;;;;;;;5.28;3.40;;;;;;;8.14;93.47;102474.88;5037793;28;20173;-71
2021/12/14 00:53:02;;;;;;;4.75;3.08;;;;;;;8.21;93.34;102478.97;5037843;28;20116;-72
2021/12/14 00:55:32;;;;;;;5.55;3.03;;;;;;;8.24;92.67;102486.72;5040920;28;20116;-71
2021/12/14 00:58:01;;;;;;;6.72;3.40;;;;;;;8.33;92.78;102493.31;5046337;28;20494;-72
2021/12/14 01:00:30;;;;;;;5.70;3.25;;;;;;;8.32;93.03;102486.38;5041050;28;20131;-71
2021/12/14 01:02:57;;;;;;;4.28;2.85;;;;;;;8.32;93.59;102492.47;5031833;28;20044;-72
2021/12/14 01:05:28;;;;;;;4.57;2.45;;;;;;;8.31;93.48;102484.66;5036751;28;20048;-71
2021/12/14 01:07:57;;;;;;;4.03;2.60;;;;;;;8.29;94.07;102487.38;5038790;28;20057;-73
2021/12/14 01:10:26;;;;;;;10.80;2.60;;;;;;;8.23;94.34;102492.00;5014588;28;20077;-74
2021/12/14 01:12:57;;;;;;;10.93;3.17;;;;;;;8.17;94.42;102490.47;5019518;28;20454;-73
2021/12/14 01:15:42;;;;;;;3.63;2.33;;;;;;;8.14;95.21;102492.34;5018525;28;20150;-72
2021/12/14 01:18:27;;;;;;;3.85;2.70;;;;;;;8.12;95.76;102504.66;5018748;28;20057;-72
2021/12/14 01:20:59;;;;;;;3.88;2.20;;;;;;;8.09;95.76;102500.38;5038248;28;20056;-73
2021/12/14 01:23:32;;;;;;;5.93;2.65;;;;;;;8.04;96.04;102507.59;5038225;28;20065;-73
2021/12/14 01:26:03;;;;;;;4.55;2.70;;;;;;;7.99;95.65;102511.28;5032540;28;20399;-76
2021/12/14 01:28:31;;;;;;;18.00;3.08;;;;;;;8.00;95.75;102513.84;5033208;28;20048;-73
2021/12/14 01:31:08;;;;;;;3.55;2.33;;;;;;;7.98;96.50;102505.22;5032481;28;20064;-74
2021/12/14 01:33:36;;;;;;;5.50;3.17;;;;;;;7.93;96.19;102492.38;5034442;28;20132;-71
2021/12/14 01:36:09;;;;;;;4.25;2.63;;;;;;;7.91;96.40;102494.22;5036232;28;20045;-74
2021/12/14 01:38:47;;;;;;;5.35;2.80;;;;;;;7.91;96.40;102496.84;5034876;28;20057;-72
2021/12/14 01:41:16;;;;;;;7.10;2.45;;;;;;;7.92;96.17;102522.94;5031154;28;20119;-72
2021/12/14 01:43:46;;;;;;;4.18;2.80;;;;;;;7.96;96.39;102508.81;5039186;28;20048;-72
2021/12/14 01:46:17;;;;;;;12.30;3.97;;;;;;;7.92;95.77;102504.63;5037987;28;20080;-72
2021/12/14 01:48:44;;;;;;;6.72;3.40;;;;;;;7.99;95.75;102527.88;5018500;28;20055;-73
2021/12/14 01:51:12;;;;;;;3.95;2.58;;;;;;;8.01;96.01;102517.31;5027981;28;20136;-74
2021/12/14 01:53:43;;;;;;;9.43;3.10;;;;;;;8.00;96.01;102516.47;5033052;28;20044;-74
2021/12/14 01:56:13;;;;;;;4.78;3.15;;;;;;;8.01;95.55;102505.09;5035869;28;20111;-71
2021/12/14 01:58:43;;;;;;;5.35;2.88;;;;;;;7.97;96.06;102490.44;5033292;28;20044;-73
2021/12/14 02:01:14;;;;;;;13.40;3.67;;;;;;;7.89;96.20;102477.72;5030750;28;20074;-74
2021/12/14 02:03:48;;;;;;;4.38;2.80;;;;;;;7.88;96.38;102476.84;5031725;28;20126;-73
2021/12/14 02:06:18;;;;;;;5.43;3.08;;;;;;;7.90;96.93;102488.13;5031572;28;20356;-73
2021/12/14 02:08:46;;;;;;;7.93;3.20;;;;;;;7.90;96.61;102487.28;5023663;28;20051;-73
2021/12/14 02:11:13;;;;;;;5.72;3.42;;;;;;;7.82;97.13;102469.25;5011601;28;20112;-74
2021/12/14 02:13:44;;;;;;;3.30;2.58;;;;;;;7.77;97.37;102476.47;5033625;28;20051;-73
2021/12/14 02:16:14;;;;;;;16.10;4.20;;;;;;;7.81;97.48;102479.81;5032435;28;20076;-73
2021/12/14 02:18:45;;;;;;;5.65;3.13;;;;;;;7.68;97.30;102457.63;5010224;28;20056;-74
2021/12/14 02:21:14;;;;;;;6.63;3.75;;;;;;;7.77;97.30;102465.13;5035121;28;20049;-72
2021/12/14 02:23:43;;;;;;;10.75;3.40;;;;;;;7.75;97.74;102454.72;5018066;28;20454;-73
2021/12/14 02:26:14;;;;;;;10.52;3.85;;;;;;;7.75;98.17;102453.91;5041139;28;20041;-72
2021/12/14 02:28:41;;;;;;;9.98;3.38;;;;;;;7.72;98.05;102441.75;5039019;28;20041;-73
2021/12/14 02:31:10;;;;;;;5.68;3.30;;;;;;;7.74;98.34;102460.88;5039470;28;20115;-74
2021/12/14 02:33:40;;;;;;;6.65;3.88;;;;;;;7.68;98.52;102445.44;5035627;28;20056;-72
2021/12/14 02:36:10;;;;;;;6.13;3.30;;;;;;;7.70;98.59;102447.97;5038952;28;20041;-72
2021/12/14 02:38:42;;;;;;;6.93;3.65;;;;;;;7.69;98.07;102460.22;5037195;28;20048;-72
2021/12/14 02:41:10;;;;;;;8.45;3.55;;;;;;;7.74;98.24;102462.66;5019198;28;20049;-74
2021/12/14 02:43:39;;;;;;;5.45;3.50;;;;;;;7.72;98.17;102449.63;5048548;28;20053;-74
2021/12/14 02:46:10;;;;;;;8.60;4.10;;;;;;;7.66;98.13;102435.94;5018747;28;20639;-72
2021/12/14 02:48:37;;;;;;;6.03;3.58;;;;;;;7.67;98.37;102435.88;5039672;28;20049;-73
2021/12/14 02:51:10;;;;;;;10.13;3.40;;;;;;;7.66;98.29;102444.63;5042457;28;20412;-71
2021/12/14 02:53:37;;;;;;;8.15;3.63;;;;;;;7.64;98.74;102443.84;5037013;28;20048;-72
2021/12/14 02:56:11;;;;;;;4.88;3.00;;;;;;;7.67;98.52;102442.88;5038360;28;20415;-72
2021/12/14 02:58:38;;;;;;;6.57;3.47;;;;;;;7.68;98.27;102447.19;5003127;28;20049;-73
2021/12/14 03:01:07;;;;;;;6.47;3.83;;;;;;;7.62;98.83;102435.22;5038777;28;20106;-73
2021/12/14 03:06:20;;;;;;;6.68;3.45;;;;;;;7.66;98.10;102446.41;5343460;22;20507;-72
2021/12/14 03:09:17;;;;;;;6.88;3.92;;;;;;;7.62;98.90;102439.59;5029848;28;20510;-72
2021/12/14 03:12:09;;;;;;;4.32;2.35;;;;;;;7.60;98.23;102430.94;5031083;28;20088;-71
2021/12/14 03:14:59;;;;;;;6.80;3.88;;;;;;;7.61;98.62;102437.88;5034943;28;20105;-71
2021/12/14 03:17:49;;;;;;;7.28;3.53;;;;;;;7.54;98.50;102425.97;5033837;28;20185;-72
2021/12/14 03:20:38;;;;;;;6.93;4.10;;;;;;;7.58;97.91;102432.78;5034828;28;20049;-72
2021/12/14 03:23:29;;;;;;;5.53;3.63;;;;;;;7.60;98.28;102437.03;5034140;28;20411;-71
2021/12/14 03:26:19;;;;;;;6.78;3.30;;;;;;;7.57;98.17;102434.53;5033329;28;20064;-73
2021/12/14 03:29:10;;;;;;;6.75;3.03;;;;;;;7.60;98.43;102441.41;5031911;28;20759;-72
2021/12/14 03:31:58;;;;;;;8.93;4.65;;;;;;;7.57;98.28;102436.31;5033270;28;20061;-73
2021/12/14 03:34:45;;;;;;;4.32;2.25;;;;;;;7.61;98.20;102428.28;5031293;28;20402;-72
2021/12/14 03:37:32;;;;;;;7.60;4.47;;;;;;;7.52;98.33;102419.94;5033472;28;20073;-72
2021/12/14 03:40:20;;;;;;;9.45;4.70;;;;;;;7.55;98.13;102419.84;5028643;28;20253;-72
2021/12/14 03:43:08;;;;;;;9.05;4.22;;;;;;;7.55;98.69;102418.06;5028075;28;20041;-72
2021/12/14 03:46:00;;;;;;;7.00;4.47;;;;;;;7.56;98.71;102424.16;5031953;28;20067;-71
2021/12/14 03:48:47;;;;;;;7.68;4.75;;;;;;;7.56;98.73;102414.53;5032426;28;20503;-72
2021/12/14 03:51:34;;;;;;;7.13;4.40;;;;;;;7.50;98.61;102422.63;5027464;28;20045;-72
2021/12/14 03:54:21;;;;;;;26.13;5.65;;;;;;;7.54;98.71;102418.13;5031364;28;20060;-72
2021/12/14 03:57:09;;;;;;;12.02;4.85;;;;;;;7.49;98.41;102422.69;5030408;28;20152;-72
2021/12/14 03:59:56;;;;;;;9.85;4.80;;;;;;;7.42;99.08;102419.47;5034090;28;20060;-73
2021/12/14 04:02:45;;;;;;;10.48;4.13;;;;;;;7.42;99.40;102421.25;5031214;28;20064;-72
2021/12/14 04:05:33;;;;;;;9.55;4.63;;;;;;;7.39;99.17;102410.91;5018492;28;20148;-72
2021/12/14 04:08:21;;;;;;;10.23;4.85;;;;;;;7.37;98.96;102417.94;5034405;28;20430;-71
2021/12/14 04:11:10;;;;;;;11.38;5.32;;;;;;;7.40;99.13;102426.50;5032792;28;20037;-72
2021/12/14 04:13:57;;;;;;;11.32;4.68;;;;;;;7.42;99.19;102443.00;5032407;28;20052;-71
2021/12/14 04:16:47;;;;;;;10.30;4.78;;;;;;;7.47;99.56;102434.97;5025644;28;20052;-71
2021/12/14 04:19:36;;;;;;;8.23;4.80;;;;;;;7.49;98.40;102448.84;5034786;28;20052;-73
2021/12/14 04:22:25;;;;;;;7.68;4.18;;;;;;;7.45;98.70;102462.94;5029817;28;20561;-74
2021/12/14 04:25:12;;;;;;;6.40;4.20;;;;;;;7.51;98.52;102462.72;5036152;28;20055;-70
2021/12/14 04:28:02;;;;;;;7.03;4.05;;;;;;;7.49;98.39;102454.06;5033434;28;20550;-71
2021/12/14 04:30:49;;;;;;;7.75;3.85;;;;;;;7.50;98.46;102467.09;5042533;28;20041;-72
2021/12/14 04:33:40;;;;;;;10.88;5.47;;;;;;;7.48;98.92;102463.66;5022023;28;20172;-72
2021/12/14 04:36:30;;;;;;;10.30;4.72;;;;;;;7.50;98.04;102463.63;5032322;28;20055;-72
2021/12/14 04:39:39;;;;;;;11.73;6.55;;;;;;;7.48;98.17;102458.44;5026749;28;20720;-73
2021/12/14 04:51:59;;;;;;;7.03;4.07;;;;;;;7.48;98.37;102458.44;5032248;28;20589;-71
2021/12/14 04:54:53;;;;;;;8.75;4.53;;;;;;;7.48;98.66;102458.44;5032069;28;20102;-72
2021/12/14 04:57:43;;;;;;;7.22;4.13;;;;;;;7.51;98.23;102458.31;5034014;28;20065;-72
2021/12/14 05:00:38;;;;;;;7.25;4.70;;;;;;;7.53;98.28;102456.50;5030855;28;20041;-72
2021/12/14 05:03:28;;;;;;;9.88;3.88;;;;;;;7.55;98.05;102454.66;5036136;28;20125;-71
2021/12/14 05:06:17;;;;;;;8.40;4.47;;;;;;;7.56;98.17;102452.91;5034743;28;20060;-75
2021/12/14 05:09:24;;;;;;;12.73;4.85;;;;;;;7.55;98.22;102440.75;5049084;28;20048;-72
2021/12/14 05:12:14;;;;;;;8.00;4.43;;;;;;;7.57;98.54;102438.94;5051184;28;20041;-71
2021/12/14 05:15:04;;;;;;;8.15;5.07;;;;;;;7.54;98.33;102436.44;5048307;28;20045;-71
2021/12/14 05:17:51;;;;;;;12.30;5.15;;;;;;;7.54;98.09;102431.19;5029627;28;20045;-73
2021/12/14 05:20:40;;;;;;;9.80;5.13;;;;;;;7.60;98.11;102442.28;5037996;28;20125;-72
2021/12/14 05:23:29;;;;;;;11.98;5.60;;;;;;;7.55;98.15;102433.75;5030005;28;20041;-74
2021/12/14 05:26:18;;;;;;;12.00;5.10;;;;;;;7.54;98.12;102425.97;5035772;28;20056;-71
2021/12/14 05:29:08;;;;;;;9.60;4.57;;;;;;;7.55;97.69;102423.28;5026430;28;20049;-72
2021/12/14 05:31:58;;;;;;;8.75;4.40;;;;;;;7.55;98.07;102425.06;5030484;28;20041;-72
2021/12/14 05:34:49;;;;;;;11.70;5.15;;;;;;;7.56;98.04;102424.16;5025036;28;20045;-73
2021/12/14 05:37:44;;;;;;;11.65;5.03;;;;;;;7.57;97.61;102423.25;5030398;28;20522;-72
2021/12/14 05:40:55;;;;;;;7.82;4.38;;;;;;;7.54;98.19;102418.13;5029377;28;20415;-72
2021/12/14 05:43:43;;;;;;;5.25;3.60;;;;;;;7.58;97.45;102430.19;5032039;28;20601;-73
2021/12/14 05:46:31;;;;;;;12.73;4.95;;;;;;;7.56;97.54;102424.16;5034375;28;20048;-73
2021/12/14 05:49:22;;;;;;;13.38;5.65;;;;;;;7.50;97.60;102422.63;5028378;28;20500;-72
2021/12/14 05:52:13;;;;;;;6.80;4.03;;;;;;;7.54;97.41;102426.84;5036692;28;20118;-74
2021/12/14 05:55:00;;;;;;;10.23;4.72;;;;;;;7.45;97.33;102418.50;5035116;28;20498;-72
2021/12/14 05:57:47;;;;;;;11.73;6.07;;;;;;;7.52;97.28;102428.66;5044104;28;20040;-72
2021/12/14 06:00:35;;;;;;;7.50;4.53;;;;;;;7.54;97.89;102436.44;5039035;28;20497;-73
2021/12/14 06:03:26;;;;;;;12.32;5.78;;;;;;;7.55;97.33;102435.53;5033323;28;20049;-70
2021/12/14 06:06:15;;;;;;;13.35;4.95;;;;;;;7.55;97.20;102440.75;5016698;28;20565;-70
2021/12/14 06:09:06;;;;;;;14.57;6.35;;;;;;;7.56;97.39;102452.91;5013990;28;20071;-72
2021/12/14 06:11:55;;;;;;;9.55;5.20;;;;;;;7.52;97.38;102443.47;5009627;28;20057;-72
2021/12/14 06:14:51;;;;;;;10.98;4.53;;;;;;;7.47;97.70;102434.97;5011261;28;20065;-74
2021/12/14 06:17:41;;;;;;;11.63;5.72;;;;;;;7.45;97.39;102431.56;5013987;28;20056;-71
2021/12/14 06:20:28;;;;;;;9.57;5.25;;;;;;;7.39;97.89;102423.97;5014594;28;20042;-71
2021/12/14 06:23:15;;;;;;;23.73;5.32;;;;;;;7.39;97.84;102423.97;5012607;28;20045;-73
2021/12/14 06:26:02;;;;;;;8.20;4.07;;;;;;;7.41;98.61;102435.22;5018038;28;20144;-72
2021/12/14 06:28:49;;;;;;;13.43;4.90;;;;;;;7.45;97.75;102436.78;5015366;28;20072;-70
2021/12/14 06:31:36;;;;;;;9.85;5.68;;;;;;;7.49;97.84;102441.00;5011628;28;20687;-72
2021/12/14 06:34:28;;;;;;;6.97;3.97;;;;;;;7.54;97.65;102467.81;5017854;28;20784;-71
2021/12/14 06:38:07;;;;;;;17.02;5.78;;;;;;;7.50;96.92;102463.63;5019144;28;20044;-71
2021/12/14 06:40:58;;;;;;;16.15;5.78;;;;;;;7.53;97.00;102471.34;5020351;28;20524;-70
2021/12/14 06:43:48;;;;;;;19.27;6.32;;;;;;;7.57;96.88;102470.31;5013112;28;20042;-70
2021/12/14 06:46:38;;;;;;;9.30;4.78;;;;;;;7.56;97.42;102476.44;5016121;28;20045;-71
2021/12/14 06:49:26;;;;;;;13.30;6.45;;;;;;;7.52;97.39;102482.69;5013563;28;20535;-72
2021/12/14 06:52:15;;;;;;;12.77;5.28;;;;;;;7.57;96.69;102478.16;5015782;28;20124;-71
2021/12/14 06:55:02;;;;;;;10.77;5.25;;;;;;;7.59;96.69;102492.88;5017209;28;20045;-71
2021/12/14 06:57:51;;;;;;;16.40;6.35;;;;;;;7.58;96.61;102492.94;5019652;28;20489;-70
2021/12/14 07:00:40;;;;;;;9.30;5.72;;;;;;;7.58;96.88;102495.56;5015179;28;20547;-72
2021/12/14 07:03:47;;;;;;;13.10;5.75;;;;;;;7.62;96.89;102484.91;5020936;28;20053;-71
2021/12/14 07:06:37;;;;;;;17.17;5.45;;;;;;;7.62;96.21;102486.66;5017143;28;20478;-72
2021/12/14 07:09:26;;;;;;;15.57;6.38;;;;;;;7.61;96.43;102492.81;5016399;28;20099;-71
2021/12/14 07:12:16;;;;;;;20.40;6.45;;;;;;;7.59;96.09;102497.28;5018580;28;20140;-72
2021/12/14 07:15:17;;;;;;;20.30;5.90;;;;;;;7.62;96.80;102497.13;5018834;28;20414;-71
2021/12/14 07:18:07;;;;;;;8.40;5.38;;;;;;;7.63;96.56;102502.31;5019142;28;20072;-70
2021/12/14 07:20:56;;;;;;;18.13;7.10;;;;;;;7.59;96.16;102486.81;5007199;28;20056;-72
2021/12/14 07:23:44;;;;;;;23.42;6.72;;;;;;;7.60;96.48;102504.16;5013787;28;20049;-68
2021/12/14 07:26:31;;;;;;;18.23;6.88;;;;;;;7.62;96.33;102508.47;5006691;28;20041;-71
2021/12/14 07:29:21;;;;;;;14.55;6.28;;;;;;;7.63;95.81;102519.75;5016835;28;20053;-71
2021/12/14 07:32:08;;;;;;;17.20;7.15;;;;;;;7.60;96.31;102525.09;5018783;28;20057;-70
2021/12/14 07:35:14;;;;;;;14.68;6.40;;;;;;;7.62;96.68;102528.50;5017773;28;20073;-72
2021/12/14 07:38:06;;;;;;;21.40;6.35;;;;;;;7.64;96.51;102539.78;5015583;28;20046;-70
2021/12/14 07:40:59;;;;;;;12.45;6.30;;;;;;;7.65;95.68;102528.41;5022133;28;20060;-70
2021/12/14 07:43:53;;;;;;;18.70;6.65;;;;;;;7.67;95.82;102542.28;5032920;28;20055;-69
2021/12/14 07:46:42;;;;;;;12.75;6.70;;;;;;;7.70;95.55;102540.41;5026485;28;20049;-73
2021/12/14 07:49:33;;;;;;;22.80;7.53;;;;;;;7.68;95.64;102555.28;5021786;28;20041;-73
2021/12/14 07:52:21;;;;;;;21.33;7.00;;;;;;;7.66;95.89;102548.41;5016267;28;20057;-70
2021/12/14 07:55:12;;;;;;;20.75;8.40;;;;;;;7.70;95.88;102552.59;5017277;28;20072;-73
2021/12/14 07:58:02;;;;;;;16.90;6.25;;;;;;;7.69;95.86;102561.34;5014850;28;20534;-71
2021/12/14 08:00:53;;;;;;;16.73;7.40;;;;;;;7.73;96.23;102555.13;5017734;28;21000;-70
2021/12/14 08:03:40;;;;;;;13.93;6.90;;;;;;;7.71;95.46;102560.41;5014839;28;20051;-71
2021/12/14 08:06:27;;;;;;;18.92;6.88;;;;;;;7.73;96.07;102558.56;5016644;28;20654;-72
2021/12/14 08:09:18;;;;;;;18.30;8.38;;;;;;;7.73;95.74;102568.19;5015129;28;20053;-75
2021/12/14 08:12:07;;;;;;;11.38;6.28;;;;;;;7.74;95.68;102575.13;5013054;28;20099;-73
2021/12/14 08:15:03;;;;;;;23.05;7.78;;;;;;;7.74;95.15;102581.19;5008255;28;20045;-72
2021/12/14 08:18:04;;;;;;;15.05;7.97;;;;;;;7.78;95.45;102582.81;5012209;28;20053;-74
2021/12/14 08:20:55;;;;;;;17.33;7.80;;;;;;;7.78;95.73;102584.56;5007999;28;20475;-71
2021/12/14 08:23:43;;;;;;;15.10;7.55;;;;;;;7.79;95.61;102575.78;5010573;28;20049;-72
2021/12/14 08:26:34;;;;;;;13.50;7.45;;;;;;;7.81;95.57;102577.44;5011463;28;20591;-73
2021/12/14 08:29:25;;;;;;;20.02;8.25;;;;;;;7.81;94.98;102573.97;5011837;28;20050;-71
2021/12/14 08:32:15;;;;;;;15.63;7.25;;;;;;;7.85;94.90;102572.94;4995943;28;20053;-74
2021/12/14 08:35:07;;;;;;;18.38;7.85;;;;;;;7.82;95.13;102567.84;5010314;28;21014;-72
2021/12/14 08:37:59;;;;;;;23.83;9.60;;;;;;;7.83;95.07;102574.78;5012609;28;20081;-73
2021/12/14 08:40:49;;;;;;;18.50;8.48;;;;;;;7.86;95.35;102579.88;5012237;28;20556;-72
2021/12/14 08:43:36;;;;;;;14.82;6.75;;;;;;;7.88;95.63;102570.22;5014015;28;20057;-73
2021/12/14 08:46:26;;;;;;;22.45;7.72;;;;;;;7.93;94.88;102564.72;5009379;28;20542;-72
2021/12/14 08:49:15;;;;;;;18.50;7.50;;;;;;;7.95;94.80;102565.53;5016603;28;20048;-72
2021/12/14 08:52:03;;;;;;;16.75;7.50;;;;;;;7.99;95.09;102567.13;5017132;28;20555;-73
2021/12/14 08:54:51;;;;;;;16.90;7.80;;;;;;;8.06;94.05;102568.56;5010125;28;20476;-73
2021/12/14 08:57:40;;;;;;;19.63;8.35;;;;;;;8.04;93.99;102562.53;5011183;28;20419;-72
2021/12/14 09:00:30;;;;;;;20.75;9.05;;;;;;;8.10;93.92;102566.69;5011858;28;20239;-72
2021/12/14 09:03:24;;;;;;;20.30;8.80;;;;;;;8.07;94.26;102567.66;5010218;28;20522;-73
2021/12/14 09:06:15;;;;;;;15.18;8.05;;;;;;;8.09;93.98;102565.81;5012472;28;20057;-73
2021/12/14 09:09:07;;;;;;;21.83;8.70;;;;;;;8.15;93.74;102572.63;5010387;28;20045;-72
2021/12/14 09:12:00;;;;;;;16.00;6.93;;;;;;;8.24;93.62;102567.00;5013877;28;20049;-73
2021/12/14 09:14:49;;;;;;;21.58;8.32;;;;;;;8.20;93.72;102552.34;5014728;28;20735;-73
2021/12/14 09:17:37;;;;;;;18.17;8.00;;;;;;;8.33;93.73;102567.47;5013932;28;20114;-73
2021/12/14 09:20:27;;;;;;;18.13;7.35;;;;;;;8.33;92.83;102577.09;5010026;28;20688;-73
2021/12/14 09:23:19;;;;;;;15.73;7.65;;;;;;;8.34;93.54;102584.88;5011896;28;20655;-74
2021/12/14 09:26:07;;;;;;;17.83;8.27;;;;;;;8.38;93.01;102577.75;5015473;28;20056;-72
2021/12/14 09:28:54;;;;;;;23.33;8.68;;;;;;;8.40;92.62;102584.66;5012596;28;20103;-72
2021/12/14 09:31:43;;;;;;;16.20;7.38;;;;;;;8.47;93.48;102573.00;5012173;28;20046;-72
2021/12/14 09:34:32;;;;;;;21.27;8.27;;;;;;;8.53;92.02;102580.59;5017673;28;20046;-70
2021/12/14 09:37:20;;;;;;;26.02;7.95;;;;;;;8.58;92.54;102583.88;5015001;28;20053;-69
2021/12/14 09:40:12;;;;;;;23.55;10.70;;;;;;;8.60;92.49;102584.66;5016371;28;20041;-71
2021/12/14 09:43:02;;;;;;;21.13;9.57;;;;;;;8.64;92.41;102586.25;5013893;28;20935;-69
2021/12/14 09:45:52;;;;;;;18.70;7.93;;;;;;;8.57;91.22;102578.72;5015220;28;20053;-70
2021/12/14 09:48:41;;;;;;;15.65;7.63;;;;;;;8.64;92.01;102588.00;5017580;28;20049;-68
2021/12/14 09:51:31;;;;;;;14.68;7.75;;;;;;;8.68;91.54;102585.19;5013864;28;20053;-70
2021/12/14 09:54:20;;;;;;;14.40;6.55;;;;;;;8.66;91.90;102587.03;5015338;28;20049;-69
2021/12/14 09:57:13;;;;;;;10.98;7.13;;;;;;;8.62;91.32;102585.47;5013482;28;20048;-70
2021/12/14 10:00:09;;;;;;;22.98;7.72;;;;;;;8.60;92.05;102584.66;5015246;28;20056;-69
2021/12/14 10:02:59;;;;;;;18.08;8.35;;;;;;;8.58;91.69;102568.16;5020330;28;20049;-71
2021/12/14 10:05:48;;;;;;;20.73;8.50;;;;;;;8.57;91.50;102579.59;5022861;28;20049;-70
2021/12/14 10:08:39;;;;;;;25.23;8.90;;;;;;;8.56;91.47;102571.75;5032952;28;20115;-69
2021/12/14 10:11:41;;;;;;;24.23;8.63;;;;;;;8.61;91.20;102577.69;5037821;28;20052;-72
2021/12/14 10:14:34;;;;;;;20.92;9.10;;;;;;;8.60;91.21;102576.81;5026336;28;20778;-71
2021/12/14 10:17:22;;;;;;;;;;;;;;;8.57;91.21;102581.31;5047835;28;20049;-70
2021/12/14 10:20:12;;;;;;;22.20;7.68;;;;;;;8.64;91.39;102578.41;5052883;28;19935;-71
2021/12/14 10:23:00;;;;;;;25.08;8.43;;;;;;;8.65;91.95;102577.50;5054937;28;20343;-68
2021/12/14 10:25:47;;;;;;;24.85;9.48;;;;;;;8.74;91.83;102586.72;5037344;28;20061;-71
2021/12/14 10:28:36;;;;;;;20.42;9.68;;;;;;;8.80;91.88;102584.69;5035655;28;20041;-71
2021/12/14 10:31:30;;;;;;;21.45;9.48;;;;;;;8.87;90.25;102584.34;5034884;28;20053;-71
2021/12/14 10:34:19;;;;;;;23.60;7.30;;;;;;;8.98;90.56;102583.91;5033337;28;20052;-70
2021/12/14 10:37:10;;;;;;;26.13;9.02;;;;;;;8.99;89.79;102581.22;5035979;28;20104;-69
2021/12/14 10:43:13;;;;;;;25.35;9.65;;;;;;;9.14;89.51;102577.06;5034127;28;20128;-70
2021/12/14 10:46:04;;;;;;;21.70;9.10;;;;;;;9.07;90.48;102579.09;5030806;28;20088;-68
2021/12/14 10:48:53;;;;;;;26.70;9.60;;;;;;;8.97;90.10;102585.66;5032856;28;20191;-70
2021/12/14 10:51:43;;;;;;;20.67;7.75;;;;;;;8.94;90.83;102583.19;5032522;28;20718;-70
2021/12/14 10:54:30;;;;;;;26.30;10.43;;;;;;;9.00;89.71;102582.06;5034043;28;20040;-70
2021/12/14 10:57:20;;;;;;;29.52;11.32;;;;;;;9.09;90.98;102573.78;5032084;28;20194;-69
2021/12/14 11:00:11;;;;;;;27.98;9.70;;;;;;;9.10;89.90;102552.75;5034184;28;20045;-70
2021/12/14 11:03:03;;;;;;;23.70;10.40;;;;;;;9.29;88.76;102564.13;5022022;28;20055;-72
2021/12/14 11:05:56;;;;;;;13.85;5.55;;;;;;;9.35;88.75;102558.63;5026241;28;20103;-70
2021/12/14 11:08:55;;;;;;;14.70;8.73;;;;;;;9.34;88.41;102554.28;5012791;28;20060;-69
2021/12/14 11:11:47;;;;;;;28.02;9.88;;;;;;;9.34;89.06;102556.03;5015006;28;20136;-72
2021/12/14 11:14:37;;;;;;;29.58;8.50;;;;;;;9.55;89.78;102557.69;4995206;28;20037;-71
2021/12/14 11:20:33;;;;;;;24.45;9.90;;;;;;;9.85;87.25;102541.34;5013190;28;20053;-69
2021/12/14 11:23:26;;;;;;;37.72;11.60;;;;;;;9.85;86.87;102549.22;5013161;28;20046;-70
2021/12/14 11:26:16;;;;;;;21.15;9.30;;;;;;;10.11;87.17;102539.22;5015198;28;20084;-69
2021/12/14 11:29:06;;;;;;;30.08;11.60;;;;;;;10.04;86.66;102540.44;5011428;28;20045;-71
2021/12/14 11:31:56;;;;;;;30.73;10.95;;;;;;;9.73;87.47;102537.53;5014367;28;20057;-70
2021/12/14 11:34:45;;;;;;;32.20;10.05;;;;;;;9.65;87.42;102546.69;5017106;28;20060;-70
2021/12/14 11:37:34;;;;;;;23.55;9.27;;;;;;;9.86;87.44;102543.91;5016140;28;20045;-70
2021/12/14 11:40:23;;;;;;;16.50;7.53;;;;;;;10.01;86.25;102550.25;5012300;28;20099;-68
2021/12/14 11:43:13;;;;;;;24.40;10.30;;;;;;;9.95;87.05;102547.84;5019514;28;20091;-70
2021/12/14 11:46:05;;;;;;;28.77;10.18;;;;;;;9.98;86.35;102551.22;5022583;28;20049;-73
2021/12/14 11:48:55;;;;;;;;;;;;;;;9.99;86.61;102542.44;5015322;28;20054;-73
2021/12/14 11:51:42;;;;;;;28.60;11.30;;;;;;;9.97;86.70;102535.53;5017362;28;19921;-72
2021/12/14 11:54:29;;;;;;;24.90;9.70;;;;;;;10.03;87.04;102528.25;5019169;28;20136;-71
2021/12/14 11:57:17;;;;;;;28.30;10.55;;;;;;;10.03;86.17;102532.63;5006552;28;20089;-72
2021/12/14 12:00:08;;;;;;;24.92;10.38;;;;;;;10.11;86.70;102533.09;5020651;28;20051;-72
2021/12/14 12:02:56;;;;;;;28.00;10.60;;;;;;;10.13;87.31;102526.88;5018663;28;20067;-73
2021/12/14 12:05:58;;;;;;;30.40;11.13;;;;;;;10.07;87.01;102527.16;5021406;28;20056;-73
2021/12/14 12:11:53;;;;;;;30.52;11.35;;;;;;;10.45;86.74;102516.44;5016967;28;20076;-72
2021/12/14 12:14:44;;;;;;;30.92;11.88;;;;;;;10.44;85.95;102519.16;5011821;28;20053;-73
2021/12/14 12:17:35;;;;;;;23.83;10.27;;;;;;;10.50;85.85;102522.34;5019219;28;20045;-72
2021/12/14 12:20:24;;;;;;;27.92;12.25;;;;;;;10.35;85.50;102519.63;5017092;28;20037;-72
2021/12/14 12:23:13;;;;;;;21.55;9.85;;;;;;;10.26;86.61;102521.88;5015771;28;20050;-69
2021/12/14 12:26:09;;;;;;;27.65;11.00;;;;;;;10.29;87.33;102513.81;5016973;28;20598;-69
2021/12/14 12:29:02;;;;;;;22.48;10.13;;;;;;;10.38;86.18;102518.59;5014227;28;20052;-71
2021/12/14 12:31:58;;;;;;;24.90;11.13;;;;;;;10.35;86.65;102519.63;5020351;28;20057;-69
2021/12/14 12:34:47;;;;;;;29.40;10.40;;;;;;;10.44;86.10;102519.16;5022667;28;20045;-73
2021/12/14 12:37:40;;;;;;;28.02;11.15;;;;;;;10.32;86.34;102514.50;5019384;28;20045;-73
2021/12/14 12:40:50;;;;;;;25.85;11.02;;;;;;;10.20;87.13;102523.00;5022025;28;20203;-74
2021/12/14 12:43:39;;;;;;;21.55;10.15;;;;;;;10.16;87.20;102515.34;5024848;28;20736;-76
2021/12/14 12:46:30;;;;;;;30.50;10.85;;;;;;;10.27;86.50;102507.78;5014059;28;20103;-73
2021/12/14 12:49:21;;;;;;;25.77;10.57;;;;;;;10.41;86.95;102514.03;5018504;28;20041;-73
2021/12/14 12:52:12;;;;;;;29.00;12.60;;;;;;;10.35;86.31;102516.13;5023586;28;20041;-71
2021/12/14 12:55:04;;;;;;;28.17;10.80;;;;;;;10.34;86.64;102517.91;5031479;28;20534;-72
2021/12/14 12:57:55;;;;;;;25.85;9.75;;;;;;;10.38;87.44;102515.06;5038466;28;20037;-72
2021/12/14 13:00:45;;;;;;;26.63;11.35;;;;;;;10.24;86.30;102518.47;5015663;28;20055;-72
2021/12/14 13:03:36;;;;;;;36.28;11.77;;;;;;;10.19;87.28;102510.81;5015879;28;20049;-73
2021/12/14 13:06:25;;;;;;;27.25;11.30;;;;;;;10.10;87.47;102520.88;5037887;28;20061;-70
2021/12/14 13:09:11;;;;;;;27.25;11.25;;;;;;;10.04;87.45;102524.69;5037037;28;20514;-72
2021/12/14 13:11:58;;;;;;;28.48;10.48;;;;;;;10.01;88.76;102516.94;5035305;28;20075;-73
2021/12/14 13:14:45;;;;;;;28.60;10.77;;;;;;;10.00;88.69;102517.88;5037432;28;20955;-72